Terminal Aerodrome Forecast
Issued by NWS

Home | Current Version | Previous Version | Text Only | Print | Product List | Glossary On
Versions: 1 2 3 4 5 6 7 8 9 10 11 12 13 14 15 16 17 18 19 20 21 22 23 24 25
000
FTUS43 KGRB 222300
TAFMTW
TAF
KMTW 222323Z 2300/2324 20005KT 5SM BR OVC008
     FM230400 19006KT 3SM -DZ BR OVC006
     FM230800 18008KT 1 1/2SM -DZ BR OVC005
      TEMPO 2308/2312 1/2SM -RA FG VV002
     FM231200 18009KT 1 1/2SM -RA BR OVC004
     FM231500 18011KT 2SM -RA BR OVC008
     FM232100 15007KT 2SM -RA BR OVC005=

USA.gov is the U.S. government's official web portal to all federal, state and local government web resources and services.